OPA Logo
 
ASOS:
At:2019.08.23 1355 UTC
Wind:160° @ 3KT
Viz: 10 mile(s)
Sky: clear
Temp: 48 F (9 C)
DewP: 41 F (5 C)
RH: 75%
Baro: 30.01 in.
ob: KBDN 231355Z AUTO 16003KT 10SM CLR 09/05 A3001 RMK AO2

ASOS:
At:2019.08.23 1256 UTC
Wind:
Viz: 10 mile(s)
Sky: clear
Temp: 41.0 F (5.0 C)
DewP: 37.9 F (3.3 C)
RH: 88%
Baro: 30.01 in.
ob: KRDM 231256Z 00000KT 10SM CLR 05/03 A3001 RMK AO2 SLP149 T00500033 PNO
Apache-SSL Logo

Valid HTML 4.01!

Central Oregon OPA Chapter

Chapter Officers 2006:

President
Gary E. Miller
109 NW Wilmington Ave.
Bend OR 97701
541 382-8588
gem@rellim.com

Vice President:
Open

Secretary/Treasurer:
Don Wilfong
210 SE Cessna Dr
Bend OR 97702
541 389-1456
dwnw@bendbroadband.com


Web page by: gem@rellim.com